Time;durP1;ratioP1;P1;durP2;ratioP2;P2;SDS_P1;SDS_P2;PMS_P1;PMS_P2;Temp;Humidity;BMP_temperature;BMP_pressure;BME280_temperature;BME280_humidity;BME280_pressure;Samples;Min_cycle;Max_cycle;Signal;HPM_P1;HPM_P2
2021/04/13 00:07:49;;;;;;;0.87;0.47;;;9.70;99.90;;;;;;20819610;28;20226;-76
2021/04/13 00:17:55;;;;;;;0.20;0.20;;;9.80;99.90;;;;;;20741055;28;20198;-76
2021/04/13 00:27:58;;;;;;;0.20;0.10;;;9.60;99.90;;;;;;20718027;28;20214;-76
2021/04/13 00:38:22;;;;;;;0.20;0.10;;;9.80;99.90;;;;;;20752574;28;20244;-76
2021/04/13 00:48:28;;;;;;;0.20;0.10;;;9.70;99.90;;;;;;20816282;28;20245;-76
2021/04/13 00:58:36;;;;;;;2.00;0.33;;;9.50;99.90;;;;;;20786933;28;20313;-75
2021/04/13 01:08:40;;;;;;;1.60;0.87;;;9.50;99.90;;;;;;20734455;28;20199;-75
2021/04/13 01:18:48;;;;;;;0.20;0.10;;;9.50;99.90;;;;;;20715336;28;20230;-75
2021/04/13 01:28:52;;;;;;;0.20;0.10;;;9.50;99.90;;;;;;20732998;28;20194;-72
2021/04/13 01:39:06;;;;;;;2.10;0.57;;;9.40;99.90;;;;;;20739152;28;20313;-74
2021/04/13 01:49:09;;;;;;;0.20;0.10;;;9.40;99.90;;;;;;20813825;28;20222;-74
2021/04/13 01:59:20;;;;;;;0.20;0.10;;;9.70;99.90;;;;;;20813856;28;20234;-74
2021/04/13 02:09:29;;;;;;;0.20;0.10;;;9.60;99.90;;;;;;20823468;28;20982;-74
2021/04/13 02:19:33;;;;;;;0.30;0.23;;;9.50;99.90;;;;;;20809933;28;20226;-74
2021/04/13 02:29:39;;;;;;;0.33;0.23;;;9.60;99.90;;;;;;20827217;28;20198;-74
2021/04/13 02:39:43;;;;;;;0.20;0.20;;;9.60;99.90;;;;;;20808312;28;20254;-75
2021/04/13 02:49:45;;;;;;;0.20;0.10;;;9.70;99.90;;;;;;20825456;28;20230;-76
2021/04/13 02:59:50;;;;;;;0.20;0.20;;;9.70;99.90;;;;;;20824704;28;20222;-74
2021/04/13 03:10:04;;;;;;;0.20;0.10;;;10.00;99.90;;;;;;20823998;28;20249;-73
2021/04/13 03:20:13;;;;;;;0.20;0.20;;;9.90;99.90;;;;;;20822261;28;20308;-74
2021/04/13 03:30:21;;;;;;;0.20;0.20;;;10.20;99.90;;;;;;20822147;28;20237;-74
2021/04/13 03:40:28;;;;;;;0.23;0.17;;;10.90;99.90;;;;;;20803212;28;20230;-74
2021/04/13 03:50:37;;;;;;;0.20;0.10;;;11.30;99.90;;;;;;20786502;28;20257;-74
2021/04/13 04:00:40;;;;;;;0.23;0.17;;;11.30;99.90;;;;;;20820749;28;20225;-75
2021/04/13 04:10:51;;;;;;;0.67;0.67;;;11.20;99.90;;;;;;20819119;28;20922;-73
2021/04/13 04:20:56;;;;;;;0.30;0.30;;;11.10;99.90;;;;;;20818446;28;20228;-74
2021/04/13 04:31:34;;;;;;;0.20;0.20;;;11.00;99.90;;;;;;20799043;28;20201;-74
2021/04/13 04:41:41;;;;;;;1.37;0.87;;;10.70;99.90;;;;;;20798291;28;20230;-75
2021/04/13 04:51:49;;;;;;;0.50;0.50;;;10.30;99.90;;;;;;20722281;28;20560;-77
2021/04/13 05:01:52;;;;;;;0.27;0.27;;;10.20;99.90;;;;;;20733452;28;20226;-78
2021/04/13 05:11:56;;;;;;;0.40;0.40;;;10.20;99.90;;;;;;20733419;28;20250;-77
2021/04/13 05:21:59;;;;;;;0.30;0.20;;;9.80;99.90;;;;;;20732270;28;20370;-77
2021/04/13 05:32:02;;;;;;;2.63;0.63;;;9.80;99.90;;;;;;20731925;28;20548;-76
2021/04/13 05:42:06;;;;;;;0.30;0.30;;;9.70;99.90;;;;;;20738586;28;20321;-75
2021/04/13 05:52:09;;;;;;;0.50;0.50;;;10.00;99.90;;;;;;20791298;28;20261;-75
2021/04/13 06:02:16;;;;;;;0.93;0.47;;;10.40;99.90;;;;;;20821851;28;20277;-73
2021/04/13 06:12:24;;;;;;;0.23;0.20;;;10.60;99.90;;;;;;20801949;28;20201;-80
2021/04/13 06:22:28;;;;;;;0.20;0.10;;;10.70;99.90;;;;;;20804584;28;20261;-74
2021/04/13 06:32:31;;;;;;;13.87;2.27;;;11.00;99.90;;;;;;20824213;28;20210;-76
2021/04/13 06:42:53;;;;;;;0.20;0.20;;;11.30;99.90;;;;;;20825822;28;20228;-76
2021/04/13 06:53:05;;;;;;;1.10;0.73;;;11.80;99.90;;;;;;20822828;28;20233;-76
2021/04/13 07:03:20;;;;;;;0.20;0.10;;;12.30;99.90;;;;;;20802630;28;20732;-78
2021/04/13 07:13:33;;;;;;;0.20;0.13;;;13.00;99.90;;;;;;20738568;28;20190;-79
2021/04/13 07:23:43;;;;;;;11.67;1.23;;;13.90;99.90;;;;;;20719803;28;20325;-78
2021/04/13 07:33:46;;;;;;;0.30;0.23;;;14.10;99.90;;;;;;20747365;28;20194;-76
2021/04/13 07:43:55;;;;;;;0.20;0.20;;;14.00;99.90;;;;;;20801812;28;20341;-74
2021/04/13 07:54:28;;;;;;;0.23;0.23;;;14.40;99.90;;;;;;20687530;28;20259;-77
2021/04/13 08:04:32;;;;;;;0.20;0.20;;;14.50;99.90;;;;;;20651065;28;20692;-78
2021/04/13 08:14:37;;;;;;;0.20;0.10;;;14.70;99.90;;;;;;20640336;28;20207;-74
2021/04/13 08:24:43;;;;;;;8.33;0.63;;;15.10;99.90;;;;;;20650964;28;20319;-78
2021/04/13 08:35:00;;;;;;;0.40;0.30;;;15.20;99.90;;;;;;20651823;28;20199;-75
2021/04/13 08:45:15;;;;;;;0.20;0.10;;;15.00;99.90;;;;;;20653416;28;20637;-75
2021/04/13 08:55:22;;;;;;;0.20;0.20;;;15.50;99.90;;;;;;20720183;28;20222;-75
2021/04/13 09:05:28;;;;;;;0.80;0.70;;;15.40;99.90;;;;;;20729860;28;20293;-72
2021/04/13 09:15:36;;;;;;;0.47;0.30;;;15.60;99.90;;;;;;20730133;28;20277;-75
2021/04/13 09:25:45;;;;;;;0.30;0.30;;;15.70;99.90;;;;;;20729094;28;20234;-76
2021/04/13 09:36:01;;;;;;;0.20;0.10;;;15.60;99.90;;;;;;20729825;28;20195;-78
2021/04/13 09:46:25;;;;;;;0.20;0.10;;;15.80;99.90;;;;;;20808825;28;20229;-77
2021/04/13 09:56:49;;;;;;;0.23;0.23;;;15.60;99.90;;;;;;20811482;28;20226;-75
2021/04/13 10:07:17;;;;;;;0.20;0.20;;;16.00;99.90;;;;;;20763971;28;20249;-77
2021/04/13 10:17:35;;;;;;;0.20;0.10;;;16.50;99.90;;;;;;20711021;28;20203;-78
2021/04/13 10:28:16;;;;;;;0.23;0.23;;;17.10;99.90;;;;;;20733275;28;20227;-77
2021/04/13 10:38:48;;;;;;;0.20;0.10;;;17.10;99.90;;;;;;20700375;28;20615;-78
2021/04/13 10:49:21;;;;;;;0.27;0.20;;;17.90;99.90;;;;;;20823985;28;20305;-79
2021/04/13 10:59:53;;;;;;;0.67;0.57;;;17.30;99.90;;;;;;20822266;28;20624;-79
2021/04/13 11:10:25;;;;;;;1.30;0.97;;;18.40;99.90;;;;;;20766423;28;20195;-77
2021/04/13 11:21:08;;;;;;;0.27;0.17;;;18.30;99.90;;;;;;20738930;28;20234;-72
2021/04/13 11:32:01;;;;;;;0.40;0.40;;;19.00;99.90;;;;;;20722988;28;20211;-80
2021/04/13 11:42:18;;;;;;;0.30;0.30;;;19.70;99.90;;;;;;20763151;28;20229;-76
2021/04/13 11:52:43;;;;;;;0.73;0.30;;;19.60;99.90;;;;;;20820092;28;20236;-78
2021/04/13 12:02:47;;;;;;;0.30;0.30;;;20.10;99.90;;;;;;20803442;28;20710;-81
2021/04/13 12:12:51;;;;;;;7.70;0.87;;;20.50;99.90;;;;;;20731589;28;20680;-80
2021/04/13 12:22:55;;;;;;;0.20;0.20;;;21.10;99.90;;;;;;20641919;28;20572;-81
2021/04/13 12:33:00;;;;;;;0.47;0.40;;;21.30;99.90;;;;;;20654947;28;20204;-82
2021/04/13 12:43:29;;;;;;;1.20;0.50;;;21.10;99.90;;;;;;20746848;28;20234;-83
2021/04/13 12:53:33;;;;;;;1.80;0.30;;;21.60;99.90;;;;;;20728709;28;20253;-78
2021/04/13 13:03:41;;;;;;;0.20;0.10;;;21.40;99.90;;;;;;20708607;28;20707;-82
2021/04/13 13:13:52;;;;;;;3.17;0.30;;;21.80;99.90;;;;;;20673516;28;20253;-83
2021/04/13 13:24:19;;;;;;;0.20;0.20;;;21.90;99.90;;;;;;20729224;28;20605;-79
2021/04/13 13:34:23;;;;;;;0.70;0.40;;;22.30;99.90;;;;;;20710550;28;20578;-77
2021/04/13 13:44:28;;;;;;;0.77;0.30;;;22.40;99.90;;;;;;20797316;28;20226;-79
2021/04/13 13:54:34;;;;;;;0.20;0.20;;;23.00;99.90;;;;;;20807938;28;20625;-80
2021/04/13 14:04:38;;;;;;;0.30;0.20;;;23.20;99.90;;;;;;20803776;28;20261;-75
2021/04/13 14:14:42;;;;;;;0.47;0.20;;;23.50;99.90;;;;;;20787168;28;20732;-78
2021/04/13 14:24:56;;;;;;;;;;;;;;;;;;;;;
2021/04/13 14:35:01;;;;;;;0.30;0.30;;;23.00;99.90;;;;;;20787101;28;20206;-78
2021/04/13 14:45:10;;;;;;;0.27;0.27;;;22.50;99.90;;;;;;20819292;28;20642;-78
2021/04/13 14:55:17;;;;;;;7.20;0.67;;;20.30;99.90;;;;;;20820371;28;20321;-79
2021/04/13 15:05:26;;;;;;;0.20;0.17;;;19.50;99.90;;;;;;20794587;28;20766;-82
2021/04/13 15:15:36;;;;;;;0.73;0.50;;;19.80;99.90;;;;;;20738496;28;20262;-78
2021/04/13 15:25:46;;;;;;;4.73;2.00;;;21.20;99.90;;;;;;20721393;28;20522;-80
2021/04/13 15:36:06;;;;;;;2.60;0.50;;;18.90;99.90;;;;;;20730213;28;20254;-74
2021/04/13 15:46:19;;;;;;;0.30;0.20;;;18.00;99.90;;;;;;20716576;28;20302;-76
2021/04/13 15:56:50;;;;;;;0.80;0.20;;;16.90;99.90;;;;;;20733097;28;20281;-80
2021/04/13 16:06:53;;;;;;;0.50;0.40;;;17.20;99.90;;;;;;20734793;28;20222;-78
2021/04/13 16:17:08;;;;;;;0.23;0.10;;;17.70;99.90;;;;;;20713980;28;20199;-78
2021/04/13 16:27:11;;;;;;;0.20;0.10;;;17.60;99.90;;;;;;20732368;28;20230;-75
2021/04/13 16:37:20;;;;;;;0.20;0.10;;;17.30;99.90;;;;;;20743394;28;20247;-76
2021/04/13 16:47:33;;;;;;;0.30;0.20;;;15.60;99.90;;;;;;20814005;28;20221;-79
2021/04/13 16:57:38;;;;;;;0.30;0.20;;;15.40;99.90;;;;;;20739332;23;20245;-74
2021/04/13 17:07:52;;;;;;;0.30;0.23;;;15.10;99.90;;;;;;20715322;28;20257;-77
2021/04/13 17:18:00;;;;;;;0.20;0.10;;;15.20;99.90;;;;;;20735216;28;20203;-78
2021/04/13 17:28:07;;;;;;;0.33;0.33;;;14.80;99.90;;;;;;20730973;28;20708;-80
2021/04/13 17:38:31;;;;;;;0.50;0.30;;;14.60;99.90;;;;;;20741724;28;20249;-75
2021/04/13 17:48:36;;;;;;;1.60;0.50;;;14.50;99.90;;;;;;20810039;28;20236;-79
2021/04/13 17:58:40;;;;;;;0.30;0.30;;;14.40;99.90;;;;;;20811240;28;20565;-77
2021/04/13 18:08:46;;;;;;;0.23;0.20;;;14.70;99.90;;;;;;20745534;28;20635;-77
2021/04/13 18:19:08;;;;;;;0.50;0.50;;;14.60;99.90;;;;;;20746682;28;20727;-76
2021/04/13 18:29:15;;;;;;;0.20;0.10;;;14.40;99.90;;;;;;20743465;28;20226;-78
2021/04/13 18:50:32;;;;;;;0.97;0.33;;;14.30;99.90;;;;;;20500226;28;20668;-78
2021/04/13 19:00:35;;;;;;;0.27;0.27;;;14.50;99.90;;;;;;20656977;28;20231;-79
2021/04/13 19:10:47;;;;;;;2.63;0.57;;;14.70;99.90;;;;;;20637508;28;20302;-78
2021/04/13 19:20:57;;;;;;;0.73;0.60;;;14.20;99.90;;;;;;20656601;28;20235;-76
2021/04/13 19:31:06;;;;;;;0.20;0.10;;;14.30;99.90;;;;;;20637497;28;20262;-78
2021/04/13 19:41:18;;;;;;;0.40;0.40;;;14.30;99.90;;;;;;20686991;28;20343;-78
2021/04/13 19:51:26;;;;;;;0.20;0.10;;;14.30;99.90;;;;;;20653221;28;20298;-78
2021/04/13 20:01:32;;;;;;;0.53;0.43;;;14.10;99.90;;;;;;20653685;28;20220;-80
2021/04/13 20:11:43;;;;;;;0.20;0.10;;;14.10;99.90;;;;;;20653189;28;20199;-78
2021/04/13 20:21:49;;;;;;;1.60;1.50;;;14.30;99.90;;;;;;20653136;28;20235;-80
2021/04/13 20:32:04;;;;;;;0.53;0.37;;;14.40;99.90;;;;;;20657259;28;20645;-79
2021/04/13 20:42:17;;;;;;;0.30;0.30;;;14.30;99.90;;;;;;20618230;28;20234;-79
2021/04/13 20:52:27;;;;;;;0.20;0.10;;;14.20;99.90;;;;;;20634437;28;20555;-77
2021/04/13 21:02:35;;;;;;;0.20;0.13;;;14.20;99.90;;;;;;20655622;28;20229;-77
2021/04/13 21:12:39;;;;;;;0.50;0.50;;;14.40;99.90;;;;;;20634184;28;20227;-78
2021/04/13 21:22:48;;;;;;;1.37;0.37;;;14.10;99.90;;;;;;20631613;28;20575;-78
2021/04/13 21:32:58;;;;;;;0.37;0.37;;;13.60;99.90;;;;;;20661943;28;20195;-78
2021/04/13 21:43:08;;;;;;;0.20;0.10;;;13.70;99.90;;;;;;20673258;28;20226;-76
2021/04/13 21:53:20;;;;;;;1.07;0.40;;;13.70;99.90;;;;;;20649677;28;20206;-76
2021/04/13 22:03:27;;;;;;;0.50;0.43;;;13.60;99.90;;;;;;20649002;28;20291;-73
2021/04/13 22:13:35;;;;;;;0.23;0.20;;;13.60;99.90;;;;;;20648994;28;20239;-74
2021/04/13 22:23:41;;;;;;;0.73;0.50;;;13.50;99.90;;;;;;20655077;28;20231;-75
2021/04/13 22:33:48;;;;;;;0.53;0.53;;;13.40;99.90;;;;;;20681040;28;20339;-75
2021/04/13 22:43:53;;;;;;;0.30;0.30;;;13.40;99.90;;;;;;20678917;28;20289;-75
2021/04/13 22:54:05;;;;;;;0.30;0.30;;;13.40;99.90;;;;;;20661539;28;20196;-75
2021/04/13 23:04:08;;;;;;;0.40;0.20;;;13.40;99.90;;;;;;20660161;28;20652;-75
2021/04/13 23:14:12;;;;;;;1.07;0.43;;;13.40;99.90;;;;;;20660412;28;20199;-77
2021/04/13 23:24:15;;;;;;;0.77;0.50;;;13.30;99.90;;;;;;20658948;28;20575;-78
2021/04/13 23:34:19;;;;;;;0.20;0.20;;;13.20;99.90;;;;;;20678660;28;20199;-76
2021/04/13 23:44:21;;;;;;;0.47;0.40;;;13.20;99.90;;;;;;20670227;28;20247;-77
2021/04/13 23:54:25;;;;;;;0.20;0.10;;;13.10;99.90;;;;;;20656906;28;20210;-77
